createdAt,value
2022-07-31T00:00:05.943Z,15.86
2022-07-31T00:01:05.877Z,15.77
2022-07-31T00:02:05.870Z,15.84
2022-07-31T00:03:05.942Z,15.86
2022-07-31T00:04:05.855Z,15.92
2022-07-31T00:05:05.844Z,15.90
2022-07-31T00:06:05.838Z,15.92
2022-07-31T00:07:06.246Z,15.88
2022-07-31T00:08:05.852Z,15.94
2022-07-31T00:09:05.823Z,15.98
2022-07-31T00:10:06.801Z,15.92
2022-07-31T00:11:05.793Z,16.00
2022-07-31T00:12:05.781Z,15.97
2022-07-31T00:13:06.814Z,15.90
2022-07-31T00:14:05.774Z,15.86
2022-07-31T00:15:05.815Z,15.83
2022-07-31T00:16:05.756Z,15.77
2022-07-31T00:17:05.998Z,15.73
2022-07-31T00:18:05.770Z,15.75
2022-07-31T00:19:05.737Z,15.73
2022-07-31T00:20:05.726Z,15.65
2022-07-31T00:21:05.723Z,15.70
2022-07-31T00:22:05.721Z,15.72
2022-07-31T00:23:05.830Z,15.79
2022-07-31T00:24:05.696Z,15.61
2022-07-31T00:25:05.692Z,15.76
2022-07-31T00:26:05.683Z,15.65
2022-07-31T00:27:06.148Z,15.79
2022-07-31T00:28:05.694Z,15.84
2022-07-31T00:29:05.655Z,15.75
2022-07-31T00:30:05.648Z,15.80
2022-07-31T00:31:05.641Z,15.79
2022-07-31T00:32:05.640Z,15.79
2022-07-31T00:33:05.658Z,15.70
2022-07-31T00:34:05.612Z,15.72
2022-07-31T00:35:05.655Z,15.61
2022-07-31T00:36:05.602Z,15.68
2022-07-31T00:37:05.860Z,15.70
2022-07-31T00:38:26.369Z,15.68
2022-07-31T00:39:07.578Z,15.70
2022-07-31T00:40:05.568Z,15.75
2022-07-31T00:41:05.565Z,15.70
2022-07-31T00:42:05.555Z,15.75
2022-07-31T00:43:05.550Z,15.73
2022-07-31T00:44:05.577Z,15.84
2022-07-31T00:45:06.530Z,15.73
2022-07-31T00:46:05.527Z,15.88
2022-07-31T00:47:06.755Z,15.77
2022-07-31T00:48:05.507Z,15.73
2022-07-31T00:49:05.587Z,15.77
2022-07-31T00:50:05.496Z,15.77
2022-07-31T00:51:05.489Z,15.64
2022-07-31T00:52:05.483Z,15.68
2022-07-31T00:53:05.473Z,15.84
2022-07-31T00:54:05.495Z,15.83
2022-07-31T00:55:05.455Z,15.90
2022-07-31T00:56:05.456Z,15.86
2022-07-31T00:57:05.791Z,15.77
2022-07-31T00:58:05.426Z,15.79
2022-07-31T00:59:05.451Z,15.82
2022-07-31T01:00:05.417Z,15.77
2022-07-31T01:01:05.443Z,15.73
2022-07-31T01:02:05.404Z,15.70
2022-07-31T01:03:05.393Z,15.70
2022-07-31T01:04:05.421Z,15.75
2022-07-31T01:05:05.380Z,15.67
2022-07-31T01:06:05.380Z,15.75
2022-07-31T01:07:05.662Z,15.65
2022-07-31T01:08:05.368Z,15.73
2022-07-31T01:09:05.377Z,15.70
2022-07-31T01:10:05.346Z,15.80
2022-07-31T01:11:05.338Z,15.76
2022-07-31T01:12:05.333Z,15.77
2022-07-31T01:13:05.323Z,15.75
2022-07-31T01:14:05.347Z,15.76
2022-07-31T01:15:05.302Z,15.79
2022-07-31T01:16:05.309Z,15.77
2022-07-31T01:17:05.738Z,15.88
2022-07-31T01:18:05.286Z,15.75
2022-07-31T01:19:05.304Z,15.70
2022-07-31T01:20:05.265Z,15.76
2022-07-31T01:21:37.946Z,15.68
2022-07-31T01:22:05.260Z,15.77
2022-07-31T01:23:06.242Z,15.75
2022-07-31T01:24:05.246Z,15.64
2022-07-31T01:25:06.236Z,15.75
2022-07-31T01:26:05.226Z,15.80
2022-07-31T01:27:05.576Z,15.73
2022-07-31T01:28:05.207Z,15.79
2022-07-31T01:29:05.225Z,15.76
2022-07-31T01:30:05.188Z,15.75
2022-07-31T01:31:25.577Z,15.73
2022-07-31T01:32:07.184Z,15.67
2022-07-31T01:33:05.174Z,15.77
2022-07-31T01:34:05.187Z,15.77
2022-07-31T01:35:05.150Z,15.70
2022-07-31T01:36:05.153Z,15.79
2022-07-31T01:37:05.555Z,15.65
2022-07-31T01:38:05.130Z,15.75
2022-07-31T01:39:05.168Z,15.73
2022-07-31T01:40:05.117Z,15.79
2022-07-31T01:41:05.111Z,15.73
2022-07-31T01:42:05.370Z,15.76
2022-07-31T01:43:05.099Z,15.65
2022-07-31T01:44:05.116Z,15.75
2022-07-31T01:45:05.083Z,15.79
2022-07-31T01:46:05.073Z,15.72
2022-07-31T01:47:05.390Z,15.73
2022-07-31T01:48:05.060Z,15.79
2022-07-31T01:49:05.158Z,15.86
2022-07-31T01:50:05.052Z,15.90
2022-07-31T01:51:05.034Z,15.75
2022-07-31T01:52:05.328Z,15.75
2022-07-31T01:53:05.022Z,15.76
2022-07-31T01:54:05.010Z,15.75
2022-07-31T01:55:05.034Z,15.90
2022-07-31T01:56:04.992Z,15.75
2022-07-31T01:57:04.987Z,15.72
2022-07-31T01:58:04.972Z,15.75
2022-07-31T01:59:20.746Z,15.88
2022-07-31T02:00:05.993Z,15.83
2022-07-31T02:01:06.025Z,15.80
2022-07-31T02:02:05.338Z,15.82
2022-07-31T02:03:09.436Z,15.84
2022-07-31T02:04:05.933Z,15.79
2022-07-31T02:05:04.962Z,15.77
2022-07-31T02:06:04.919Z,15.80
2022-07-31T02:07:04.917Z,15.84
2022-07-31T02:08:04.907Z,15.79
2022-07-31T02:09:04.907Z,15.76
2022-07-31T02:10:04.924Z,15.77
2022-07-31T02:11:04.896Z,15.72
2022-07-31T02:12:05.277Z,15.83
2022-07-31T02:13:04.872Z,15.83
2022-07-31T02:14:04.865Z,15.88
2022-07-31T02:15:04.882Z,15.86
2022-07-31T02:16:05.047Z,15.95
2022-07-31T02:17:04.842Z,15.90
2022-07-31T02:18:04.828Z,15.90
2022-07-31T02:19:04.826Z,15.98
2022-07-31T02:20:04.842Z,15.95
2022-07-31T02:21:04.794Z,15.90
2022-07-31T02:22:05.965Z,15.83
2022-07-31T02:23:04.796Z,15.90
2022-07-31T02:24:04.788Z,15.95
2022-07-31T02:25:04.807Z,15.92
2022-07-31T02:26:04.773Z,15.97
2022-07-31T02:27:04.759Z,15.94
2022-07-31T02:28:05.752Z,15.90
2022-07-31T02:29:04.770Z,15.84
2022-07-31T02:30:04.775Z,15.97
2022-07-31T02:31:04.734Z,16.00
2022-07-31T02:32:04.722Z,15.94
2022-07-31T02:33:04.724Z,15.91
2022-07-31T02:34:04.714Z,15.84
2022-07-31T02:35:04.726Z,15.82
2022-07-31T02:36:04.701Z,15.88
2022-07-31T02:37:04.688Z,15.82
2022-07-31T02:38:04.672Z,15.82
2022-07-31T02:39:04.669Z,15.79
2022-07-31T02:40:04.686Z,15.84
2022-07-31T02:41:04.661Z,15.77
2022-07-31T02:42:04.959Z,15.86
2022-07-31T02:43:04.637Z,15.73
2022-07-31T02:44:04.632Z,15.75
2022-07-31T02:45:04.648Z,15.75
2022-07-31T02:46:04.608Z,15.80
2022-07-31T02:47:04.603Z,15.68
2022-07-31T02:48:04.596Z,15.72
2022-07-31T02:49:04.622Z,15.76
2022-07-31T02:50:04.609Z,15.79
2022-07-31T02:51:04.582Z,15.75
2022-07-31T02:52:04.886Z,15.82
2022-07-31T02:53:04.560Z,15.80
2022-07-31T02:54:04.559Z,15.77
2022-07-31T02:55:04.566Z,15.77
2022-07-31T02:56:04.751Z,15.75
2022-07-31T02:57:04.528Z,15.76
2022-07-31T02:58:04.563Z,15.76
2022-07-31T02:59:04.501Z,15.82
2022-07-31T03:00:05.527Z,15.79
2022-07-31T03:01:04.591Z,15.82
2022-07-31T03:02:04.788Z,15.80
2022-07-31T03:03:04.478Z,15.80
2022-07-31T03:04:04.476Z,15.72
2022-07-31T03:05:04.494Z,15.79
2022-07-31T03:06:04.471Z,15.88
2022-07-31T03:07:04.447Z,15.73
2022-07-31T03:08:04.448Z,15.77
2022-07-31T03:09:04.439Z,15.82
2022-07-31T03:10:04.431Z,15.79
2022-07-31T03:11:04.446Z,15.79
2022-07-31T03:12:05.099Z,15.82
2022-07-31T03:13:04.423Z,15.80
2022-07-31T03:14:04.403Z,15.88
2022-07-31T03:15:04.393Z,15.83
2022-07-31T03:16:04.415Z,15.83
2022-07-31T03:17:04.376Z,15.90
2022-07-31T03:18:11.119Z,15.88
2022-07-31T03:19:05.359Z,15.83
2022-07-31T03:20:04.353Z,15.84
2022-07-31T03:21:04.376Z,15.82
2022-07-31T03:22:04.677Z,15.72
2022-07-31T03:23:04.335Z,15.76
2022-07-31T03:24:04.321Z,15.75
2022-07-31T03:25:04.319Z,15.68
2022-07-31T03:26:04.334Z,15.62
2022-07-31T03:27:04.301Z,15.75
2022-07-31T03:28:04.304Z,15.64
2022-07-31T03:29:04.283Z,15.75
2022-07-31T03:30:05.274Z,15.73
2022-07-31T03:31:04.295Z,15.84
2022-07-31T03:32:04.609Z,15.77
2022-07-31T03:33:04.252Z,15.79
2022-07-31T03:34:04.245Z,15.82
2022-07-31T03:35:04.234Z,15.83
2022-07-31T03:36:04.253Z,15.70
2022-07-31T03:37:04.225Z,15.62
2022-07-31T03:38:41.680Z,15.77
2022-07-31T03:39:05.209Z,15.79
2022-07-31T03:40:04.199Z,15.75
2022-07-31T03:41:04.216Z,15.73
2022-07-31T03:42:04.495Z,15.72
2022-07-31T03:43:04.179Z,15.62
2022-07-31T03:44:04.170Z,15.57
2022-07-31T03:45:04.171Z,15.54
2022-07-31T03:46:04.181Z,15.58
2022-07-31T03:47:04.154Z,15.55
2022-07-31T03:48:04.144Z,15.59
2022-07-31T03:49:04.173Z,15.49
2022-07-31T03:50:04.134Z,15.47
2022-07-31T03:51:04.150Z,15.44
2022-07-31T03:52:06.452Z,15.54
2022-07-31T03:53:06.099Z,15.54
2022-07-31T03:54:05.093Z,15.57
2022-07-31T03:55:04.087Z,15.57
2022-07-31T03:56:04.101Z,15.51
2022-07-31T03:57:04.076Z,15.61
2022-07-31T03:58:04.066Z,15.68
2022-07-31T03:59:04.058Z,15.65
2022-07-31T04:00:04.050Z,15.55
2022-07-31T04:01:04.677Z,15.72
2022-07-31T04:02:06.027Z,15.62
2022-07-31T04:03:04.035Z,15.73
2022-07-31T04:04:04.026Z,15.75
2022-07-31T04:05:09.506Z,15.65
2022-07-31T04:06:06.035Z,15.70
2022-07-31T04:07:04.007Z,15.72
2022-07-31T04:08:03.988Z,15.55
2022-07-31T04:09:07.872Z,15.47
2022-07-31T04:10:04.973Z,15.61
2022-07-31T04:11:03.994Z,15.62
2022-07-31T04:12:04.242Z,15.62
2022-07-31T04:13:03.950Z,15.57
2022-07-31T04:14:03.941Z,15.62
2022-07-31T04:15:03.934Z,15.67
2022-07-31T04:16:03.963Z,15.62
2022-07-31T04:17:03.920Z,15.65
2022-07-31T04:18:03.910Z,15.58
2022-07-31T04:19:03.902Z,15.58
2022-07-31T04:20:05.617Z,15.52
2022-07-31T04:21:03.939Z,15.59
2022-07-31T04:22:04.216Z,15.64
2022-07-31T04:23:03.871Z,15.54
2022-07-31T04:24:03.865Z,15.54
2022-07-31T04:25:03.847Z,15.58
2022-07-31T04:26:04.878Z,15.62
2022-07-31T04:27:03.844Z,15.52
2022-07-31T04:28:03.837Z,15.58
2022-07-31T04:29:03.839Z,15.61
2022-07-31T04:30:03.818Z,15.73
2022-07-31T04:31:03.839Z,15.70
2022-07-31T04:32:04.044Z,15.68
2022-07-31T04:33:03.801Z,15.68
2022-07-31T04:34:03.790Z,15.61
2022-07-31T04:35:03.786Z,15.61
2022-07-31T04:36:03.802Z,15.70
2022-07-31T04:37:03.769Z,15.54
2022-07-31T04:38:03.754Z,15.68
2022-07-31T04:39:03.754Z,15.70
2022-07-31T04:40:03.751Z,15.70
2022-07-31T04:41:03.768Z,15.73
2022-07-31T04:42:03.978Z,15.77
2022-07-31T04:43:03.726Z,15.68
2022-07-31T04:44:03.710Z,15.72
2022-07-31T04:45:03.704Z,15.65
2022-07-31T04:46:03.732Z,15.76
2022-07-31T04:47:04.684Z,15.77
2022-07-31T04:48:03.686Z,15.75
2022-07-31T04:49:03.789Z,15.72
2022-07-31T04:50:03.679Z,15.86
2022-07-31T04:51:03.679Z,15.80
2022-07-31T04:52:03.885Z,15.82
2022-07-31T04:53:03.648Z,15.86
2022-07-31T04:54:03.627Z,15.84
2022-07-31T04:55:03.629Z,15.76
2022-07-31T04:56:03.647Z,16.00
2022-07-31T04:57:03.614Z,16.42
2022-07-31T04:58:03.604Z,16.75
2022-07-31T04:59:03.595Z,17.14
2022-07-31T05:00:03.595Z,17.54
2022-07-31T05:01:03.603Z,17.98
2022-07-31T05:02:04.917Z,18.35
2022-07-31T05:03:03.571Z,18.74
2022-07-31T05:04:03.558Z,18.90
2022-07-31T05:05:03.545Z,19.11
2022-07-31T05:06:03.545Z,19.44
2022-07-31T05:07:03.556Z,19.59
2022-07-31T05:08:03.525Z,19.79
2022-07-31T05:09:08.447Z,20.28
2022-07-31T05:10:05.518Z,20.58
2022-07-31T05:11:03.502Z,21.09
2022-07-31T05:12:03.808Z,21.32
2022-07-31T05:13:03.491Z,21.54
2022-07-31T05:14:03.486Z,21.69
2022-07-31T05:15:03.478Z,21.89
2022-07-31T05:16:03.469Z,22.11
2022-07-31T05:17:03.485Z,22.45
2022-07-31T05:18:03.449Z,22.72
2022-07-31T05:19:03.446Z,22.87
2022-07-31T05:20:03.436Z,23.09
2022-07-31T05:21:03.431Z,23.13
2022-07-31T05:22:03.445Z,23.06
2022-07-31T05:23:06.566Z,23.05
2022-07-31T05:24:03.408Z,23.17
2022-07-31T05:25:03.393Z,23.21
2022-07-31T05:26:03.402Z,22.68
2022-07-31T05:27:03.423Z,22.08
2022-07-31T05:28:03.376Z,21.75
2022-07-31T05:29:04.377Z,22.08
2022-07-31T05:30:03.365Z,22.54
2022-07-31T05:31:03.363Z,23.13
2022-07-31T05:32:03.377Z,23.56
2022-07-31T05:33:03.327Z,23.87
2022-07-31T05:34:04.332Z,24.30
2022-07-31T05:35:03.328Z,24.53
2022-07-31T05:36:03.318Z,24.58
2022-07-31T05:37:03.357Z,24.54
2022-07-31T05:38:03.301Z,24.45
2022-07-31T05:39:03.299Z,24.06
2022-07-31T05:40:03.284Z,23.62
2022-07-31T05:41:03.281Z,23.24
2022-07-31T05:42:03.534Z,23.09
2022-07-31T05:43:03.263Z,23.23
2022-07-31T05:44:03.256Z,23.62
2022-07-31T05:45:03.247Z,24.05
2022-07-31T05:46:03.242Z,24.43
2022-07-31T05:47:03.262Z,24.85
2022-07-31T05:48:03.223Z,25.04
2022-07-31T05:49:03.298Z,25.32
2022-07-31T05:50:03.226Z,25.17
2022-07-31T05:51:05.574Z,24.74
2022-07-31T05:52:04.470Z,24.39
2022-07-31T05:53:03.193Z,24.05
2022-07-31T05:54:03.179Z,24.21
2022-07-31T05:55:03.177Z,24.23
2022-07-31T05:56:03.161Z,24.57
2022-07-31T05:57:03.181Z,24.50
2022-07-31T05:58:03.145Z,24.21
2022-07-31T05:59:03.146Z,23.99
2022-07-31T06:00:03.804Z,24.05
2022-07-31T06:01:03.168Z,23.59
2022-07-31T06:02:03.509Z,23.34
2022-07-31T06:03:03.117Z,22.93
2022-07-31T06:04:03.108Z,22.78
2022-07-31T06:05:03.091Z,22.72
2022-07-31T06:06:03.092Z,22.55
2022-07-31T06:07:03.110Z,22.45
2022-07-31T06:08:03.067Z,22.26
2022-07-31T06:09:04.786Z,22.04
2022-07-31T06:10:04.079Z,22.00
2022-07-31T06:11:03.048Z,21.73
2022-07-31T06:12:03.350Z,21.35
2022-07-31T06:13:03.033Z,21.25
2022-07-31T06:14:03.142Z,21.21
2022-07-31T06:15:03.019Z,21.22
2022-07-31T06:16:03.013Z,21.17
2022-07-31T06:17:03.029Z,21.09
2022-07-31T06:18:02.997Z,21.11
2022-07-31T06:19:02.991Z,21.07
2022-07-31T06:20:02.981Z,21.02
2022-07-31T06:21:02.972Z,21.02
2022-07-31T06:22:03.293Z,21.09
2022-07-31T06:23:02.954Z,20.95
2022-07-31T06:24:03.948Z,20.96
2022-07-31T06:25:02.938Z,20.87
2022-07-31T06:26:03.398Z,20.81
2022-07-31T06:27:02.949Z,20.90
2022-07-31T06:28:04.200Z,21.03
2022-07-31T06:29:03.905Z,21.17
2022-07-31T06:30:02.907Z,21.09
2022-07-31T06:31:02.936Z,21.15
2022-07-31T06:32:03.256Z,21.17
2022-07-31T06:33:08.174Z,21.14
2022-07-31T06:34:03.864Z,21.07
2022-07-31T06:35:02.869Z,21.11
2022-07-31T06:36:02.893Z,21.00
2022-07-31T06:37:02.849Z,20.97
2022-07-31T06:38:02.859Z,21.09
2022-07-31T06:39:02.824Z,21.06
2022-07-31T06:40:02.830Z,20.90
2022-07-31T06:41:02.809Z,20.74
2022-07-31T06:42:03.106Z,20.77
2022-07-31T06:43:06.731Z,20.70
2022-07-31T06:44:03.786Z,20.78
2022-07-31T06:45:02.779Z,20.51
2022-07-31T06:46:02.775Z,20.60
2022-07-31T06:47:02.775Z,20.65
2022-07-31T06:48:02.791Z,20.78
2022-07-31T06:49:08.296Z,20.69
2022-07-31T06:50:04.739Z,20.62
2022-07-31T06:51:29.775Z,20.59
2022-07-31T06:52:05.137Z,20.58
2022-07-31T06:53:02.742Z,20.52
2022-07-31T06:54:02.710Z,20.55
2022-07-31T06:55:02.708Z,20.51
2022-07-31T06:56:02.689Z,20.58
2022-07-31T06:57:02.673Z,20.62
2022-07-31T06:58:03.703Z,20.67
2022-07-31T06:59:02.671Z,20.67
2022-07-31T07:00:07.229Z,20.75
2022-07-31T07:01:04.700Z,20.77
2022-07-31T07:02:03.028Z,20.70
2022-07-31T07:03:02.667Z,20.87
2022-07-31T07:04:02.639Z,20.93
2022-07-31T07:05:05.596Z,20.92
2022-07-31T07:06:02.624Z,20.95
2022-07-31T07:07:02.610Z,21.09
2022-07-31T07:08:02.623Z,21.11
2022-07-31T07:09:02.608Z,21.00
2022-07-31T07:10:02.590Z,20.93
2022-07-31T07:11:02.581Z,20.90
2022-07-31T07:12:02.669Z,20.90
2022-07-31T07:13:02.597Z,20.90
2022-07-31T07:14:02.555Z,20.87
2022-07-31T07:15:02.549Z,20.90
2022-07-31T07:16:02.544Z,20.97
2022-07-31T07:17:02.545Z,20.92
2022-07-31T07:18:02.560Z,21.17
2022-07-31T07:19:02.531Z,21.00
2022-07-31T07:20:02.510Z,20.87
2022-07-31T07:21:02.498Z,20.85
2022-07-31T07:22:35.070Z,21.03
2022-07-31T07:23:02.524Z,20.97
2022-07-31T07:24:02.482Z,20.97
2022-07-31T07:25:02.475Z,20.95
2022-07-31T07:26:02.475Z,21.02
2022-07-31T07:27:02.459Z,21.07
2022-07-31T07:28:02.478Z,21.25
2022-07-31T07:29:02.448Z,21.45
2022-07-31T07:30:02.455Z,21.52
2022-07-31T07:31:02.513Z,21.64
2022-07-31T07:32:02.938Z,21.92
2022-07-31T07:33:02.440Z,22.26
2022-07-31T07:34:02.405Z,22.47
2022-07-31T07:35:02.403Z,22.63
2022-07-31T07:36:02.390Z,22.90
2022-07-31T07:37:02.378Z,23.08
2022-07-31T07:38:02.402Z,23.13
2022-07-31T07:39:02.369Z,23.21
2022-07-31T07:40:03.644Z,23.28
2022-07-31T07:41:02.353Z,23.27
2022-07-31T07:42:02.618Z,23.37
2022-07-31T07:43:03.289Z,23.44
2022-07-31T07:44:03.333Z,23.44
2022-07-31T07:45:02.332Z,23.46
2022-07-31T07:46:02.317Z,23.20
2022-07-31T07:47:02.387Z,23.08
2022-07-31T07:48:06.164Z,22.85
2022-07-31T07:49:03.330Z,22.90
2022-07-31T07:50:02.292Z,23.12
2022-07-31T07:51:02.278Z,23.17
2022-07-31T07:52:02.269Z,23.23
2022-07-31T07:53:02.293Z,23.32
2022-07-31T07:54:02.263Z,23.62
2022-07-31T07:55:02.252Z,23.69
2022-07-31T07:56:02.245Z,23.78
2022-07-31T07:57:02.234Z,23.65
2022-07-31T07:58:02.228Z,23.40
2022-07-31T07:59:02.248Z,23.27
2022-07-31T08:00:02.217Z,23.31
2022-07-31T08:01:02.290Z,23.21
2022-07-31T08:02:02.647Z,23.17
2022-07-31T08:03:46.536Z,23.05
2022-07-31T08:04:03.205Z,22.99
2022-07-31T08:05:02.181Z,22.99
2022-07-31T08:06:02.169Z,23.10
2022-07-31T08:07:02.162Z,23.31
2022-07-31T08:08:02.168Z,23.47
2022-07-31T08:09:02.184Z,23.43
2022-07-31T08:10:02.141Z,23.34
2022-07-31T08:11:02.148Z,23.12
2022-07-31T08:12:02.418Z,23.08
2022-07-31T08:13:02.117Z,23.21
2022-07-31T08:14:02.149Z,23.20
2022-07-31T08:15:02.103Z,23.23
2022-07-31T08:16:02.093Z,23.23
2022-07-31T08:17:02.089Z,23.15
2022-07-31T08:18:02.221Z,23.25
2022-07-31T08:19:02.103Z,23.18
2022-07-31T08:20:02.066Z,23.20
2022-07-31T08:21:02.059Z,23.25
2022-07-31T08:22:02.267Z,23.44
2022-07-31T08:23:02.091Z,23.51
2022-07-31T08:24:02.061Z,23.69
2022-07-31T08:25:05.358Z,23.73
2022-07-31T08:26:02.021Z,23.80
2022-07-31T08:27:02.013Z,24.08
2022-07-31T08:28:02.999Z,24.43
2022-07-31T08:29:05.068Z,24.42
2022-07-31T08:30:02.988Z,24.70
2022-07-31T08:31:01.980Z,24.78
2022-07-31T08:32:02.399Z,24.92
2022-07-31T08:33:02.016Z,24.70
2022-07-31T08:34:01.992Z,24.65
2022-07-31T08:35:01.960Z,24.78
2022-07-31T08:36:01.944Z,25.06
2022-07-31T08:37:52.119Z,25.28
2022-07-31T08:38:04.796Z,25.50
2022-07-31T08:39:01.947Z,25.51
2022-07-31T08:40:01.913Z,25.48
2022-07-31T08:41:01.909Z,25.43
2022-07-31T08:42:02.338Z,25.50
2022-07-31T08:43:03.172Z,25.40
2022-07-31T08:44:04.376Z,25.04
2022-07-31T08:45:02.887Z,24.96
2022-07-31T08:46:01.866Z,25.18
2022-07-31T08:47:01.861Z,25.32
2022-07-31T08:48:01.852Z,25.50
2022-07-31T08:49:01.957Z,25.44
2022-07-31T08:50:01.845Z,25.33
2022-07-31T08:51:01.826Z,25.44
2022-07-31T08:52:02.281Z,25.54
2022-07-31T08:53:01.811Z,25.38
2022-07-31T08:54:01.836Z,25.35
2022-07-31T08:55:01.798Z,25.40
2022-07-31T08:56:01.786Z,25.35
2022-07-31T08:57:02.165Z,25.48
2022-07-31T08:58:01.774Z,25.32
2022-07-31T08:59:01.792Z,25.13
2022-07-31T09:00:01.755Z,25.36
2022-07-31T09:01:01.819Z,25.50
2022-07-31T09:02:02.141Z,25.53
2022-07-31T09:03:01.733Z,25.48
2022-07-31T09:04:01.747Z,25.51
2022-07-31T09:05:01.720Z,25.70
2022-07-31T09:06:01.711Z,25.72
2022-07-31T09:07:02.102Z,25.75
2022-07-31T09:08:01.691Z,25.66
2022-07-31T09:09:01.718Z,25.68
2022-07-31T09:10:01.686Z,25.80
2022-07-31T09:11:01.681Z,25.80
2022-07-31T09:12:01.669Z,25.80
2022-07-31T09:13:01.687Z,25.96
2022-07-31T09:14:03.027Z,25.88
2022-07-31T09:15:01.677Z,26.00
2022-07-31T09:16:01.670Z,26.22
2022-07-31T09:17:02.026Z,26.23
2022-07-31T09:18:01.627Z,26.21
2022-07-31T09:19:01.606Z,26.03
2022-07-31T09:20:01.640Z,25.90
2022-07-31T09:21:02.070Z,25.81
2022-07-31T09:22:01.608Z,25.84
2022-07-31T09:23:01.585Z,25.72
2022-07-31T09:24:01.594Z,25.77
2022-07-31T09:25:01.601Z,25.81
2022-07-31T09:26:01.561Z,25.85
2022-07-31T09:27:01.722Z,25.95
2022-07-31T09:28:01.578Z,25.87
2022-07-31T09:29:01.551Z,26.07
2022-07-31T09:30:01.559Z,26.29
2022-07-31T09:31:01.532Z,26.36
2022-07-31T09:32:01.525Z,26.37
2022-07-31T09:33:01.518Z,26.29
2022-07-31T09:34:01.508Z,26.51
2022-07-31T09:35:01.528Z,26.56
2022-07-31T09:36:01.490Z,26.36
2022-07-31T09:37:01.735Z,25.96
2022-07-31T09:38:01.480Z,25.91
2022-07-31T09:39:05.258Z,26.00
2022-07-31T09:40:01.848Z,25.98
2022-07-31T09:41:01.465Z,26.03
2022-07-31T09:42:17.015Z,25.88
2022-07-31T09:43:03.198Z,25.88
2022-07-31T09:44:01.468Z,25.96
2022-07-31T09:45:01.466Z,25.78
2022-07-31T09:46:01.449Z,25.85
2022-07-31T09:47:01.702Z,26.03
2022-07-31T09:48:01.464Z,26.03
2022-07-31T09:49:01.447Z,26.19
2022-07-31T09:50:01.425Z,26.18
2022-07-31T09:51:01.391Z,26.02
2022-07-31T09:52:01.377Z,25.91
2022-07-31T09:53:01.364Z,25.96
2022-07-31T09:54:01.356Z,25.81
2022-07-31T09:55:01.404Z,25.72
2022-07-31T09:56:01.342Z,25.75
2022-07-31T09:57:01.526Z,25.73
2022-07-31T09:58:01.330Z,25.68
2022-07-31T09:59:01.318Z,25.78
2022-07-31T10:00:01.345Z,25.84
2022-07-31T10:01:01.361Z,25.96
2022-07-31T10:02:01.295Z,26.29
2022-07-31T10:03:01.295Z,26.51
2022-07-31T10:04:01.339Z,26.63
2022-07-31T10:05:01.324Z,26.97
2022-07-31T10:06:01.268Z,27.26
2022-07-31T10:07:01.448Z,27.55
2022-07-31T10:08:01.270Z,27.82
2022-07-31T10:09:01.251Z,27.82
2022-07-31T10:10:01.296Z,27.89
2022-07-31T10:11:01.231Z,27.89
2022-07-31T10:12:01.228Z,28.02
2022-07-31T10:13:01.298Z,27.63
2022-07-31T10:14:01.213Z,27.47
2022-07-31T10:15:01.233Z,27.12
2022-07-31T10:16:01.195Z,27.05
2022-07-31T10:17:02.565Z,27.02
2022-07-31T10:18:01.180Z,27.12
2022-07-31T10:19:01.181Z,27.27
2022-07-31T10:20:01.164Z,27.67
2022-07-31T10:21:01.183Z,27.92
2022-07-31T10:22:01.147Z,27.96
2022-07-31T10:23:01.143Z,28.00
2022-07-31T10:24:01.137Z,28.15
2022-07-31T10:25:01.119Z,27.98
2022-07-31T10:26:01.158Z,28.01
2022-07-31T10:27:07.804Z,27.71
2022-07-31T10:28:03.102Z,27.67
2022-07-31T10:29:01.099Z,27.75
2022-07-31T10:30:01.097Z,27.71
2022-07-31T10:31:01.119Z,28.00
2022-07-31T10:32:01.075Z,28.23
2022-07-31T10:33:01.064Z,28.49
2022-07-31T10:34:01.053Z,28.35
2022-07-31T10:35:01.051Z,28.20
2022-07-31T10:36:01.069Z,28.02
2022-07-31T10:37:01.173Z,27.78
2022-07-31T10:38:01.028Z,27.47
2022-07-31T10:39:01.015Z,27.15
2022-07-31T10:40:01.015Z,27.00
2022-07-31T10:41:01.036Z,26.93
2022-07-31T10:42:01.017Z,26.81
2022-07-31T10:43:01.018Z,26.56
2022-07-31T10:44:00.984Z,26.53
2022-07-31T10:45:00.970Z,26.62
2022-07-31T10:46:00.986Z,26.92
2022-07-31T10:47:00.953Z,26.88
2022-07-31T10:48:00.963Z,26.68
2022-07-31T10:49:00.978Z,26.77
2022-07-31T10:50:01.938Z,26.96
2022-07-31T10:51:00.947Z,27.15
2022-07-31T10:52:00.920Z,27.33
2022-07-31T10:53:00.910Z,27.29
2022-07-31T10:54:00.966Z,27.25
2022-07-31T10:55:00.902Z,27.33
2022-07-31T10:56:00.922Z,27.18
2022-07-31T10:57:00.981Z,27.17
2022-07-31T10:58:00.878Z,27.20
2022-07-31T10:59:00.863Z,27.32
2022-07-31T11:00:00.869Z,27.30
2022-07-31T11:01:00.876Z,27.48
2022-07-31T11:02:00.897Z,27.58
2022-07-31T11:03:00.884Z,27.15
2022-07-31T11:04:00.841Z,27.17
2022-07-31T11:05:00.828Z,27.33
2022-07-31T11:06:02.898Z,27.54
2022-07-31T11:07:00.814Z,27.82
2022-07-31T11:08:00.802Z,28.07
2022-07-31T11:09:00.794Z,28.12
2022-07-31T11:10:00.790Z,28.32
2022-07-31T11:11:00.817Z,28.47
2022-07-31T11:12:00.769Z,28.23
2022-07-31T11:13:00.758Z,28.35
2022-07-31T11:14:00.759Z,28.60
2022-07-31T11:15:00.749Z,28.49
2022-07-31T11:16:00.762Z,28.59
2022-07-31T11:17:00.756Z,28.66
2022-07-31T11:18:22.148Z,28.97
2022-07-31T11:19:01.734Z,28.98
2022-07-31T11:20:00.715Z,29.07
2022-07-31T11:21:06.187Z,28.98
2022-07-31T11:22:31.244Z,28.98
2022-07-31T11:23:01.692Z,29.20
2022-07-31T11:24:03.345Z,29.54
2022-07-31T11:25:00.822Z,29.60
2022-07-31T11:26:00.663Z,29.60
2022-07-31T11:27:00.687Z,29.49
2022-07-31T11:28:00.649Z,29.10
2022-07-31T11:30:00.452Z,29.20
2022-07-31T11:30:04.744Z,29.36
2022-07-31T11:31:02.635Z,29.44
2022-07-31T11:32:00.649Z,29.60
2022-07-31T11:33:00.613Z,29.56
2022-07-31T11:34:00.603Z,29.34
2022-07-31T11:35:00.601Z,29.08
2022-07-31T11:36:00.595Z,29.04
2022-07-31T11:37:00.617Z,29.04
2022-07-31T11:38:00.598Z,29.23
2022-07-31T11:39:00.619Z,29.32
2022-07-31T11:40:00.576Z,29.38
2022-07-31T11:41:00.563Z,29.27
2022-07-31T11:42:00.582Z,29.13
2022-07-31T11:43:24.762Z,29.02
2022-07-31T11:44:02.542Z,28.88
2022-07-31T11:45:00.539Z,28.88
2022-07-31T11:46:00.525Z,28.82
2022-07-31T11:47:00.568Z,28.89
2022-07-31T11:48:11.033Z,28.85
2022-07-31T11:49:01.577Z,28.30
2022-07-31T11:50:00.592Z,28.29
2022-07-31T11:51:00.490Z,28.25
2022-07-31T11:52:00.502Z,28.29
2022-07-31T11:53:00.472Z,28.20
2022-07-31T11:54:00.469Z,28.32
2022-07-31T11:55:04.231Z,28.38
2022-07-31T11:56:01.458Z,28.22
2022-07-31T11:57:00.580Z,28.14
2022-07-31T11:58:00.436Z,28.23
2022-07-31T11:59:00.418Z,28.32
2022-07-31T12:00:01.424Z,28.05
2022-07-31T12:01:01.416Z,28.04
2022-07-31T12:02:00.444Z,27.78
2022-07-31T12:03:00.477Z,27.74
2022-07-31T12:04:07.515Z,27.82
2022-07-31T12:05:01.392Z,27.70
2022-07-31T12:06:00.375Z,27.55
2022-07-31T12:07:00.410Z,27.68
2022-07-31T12:08:00.367Z,27.64
2022-07-31T12:09:00.354Z,27.64
2022-07-31T12:10:03.429Z,27.71
2022-07-31T12:11:00.355Z,27.73
2022-07-31T12:12:01.389Z,27.68
2022-07-31T12:13:00.334Z,27.70
2022-07-31T12:14:00.345Z,27.77
2022-07-31T12:15:00.318Z,27.90
2022-07-31T12:16:00.304Z,27.96
2022-07-31T12:17:00.306Z,28.01
2022-07-31T12:18:00.325Z,28.04
2022-07-31T12:19:00.282Z,27.98
2022-07-31T12:20:00.272Z,28.14
2022-07-31T12:21:00.272Z,28.11
2022-07-31T12:22:00.265Z,27.93
2022-07-31T12:23:00.273Z,28.00
2022-07-31T12:24:00.250Z,28.07
2022-07-31T12:25:00.244Z,28.14
2022-07-31T12:26:00.233Z,28.41
2022-07-31T12:27:00.227Z,28.60
2022-07-31T12:28:00.243Z,28.62
2022-07-31T12:29:00.217Z,28.59
2022-07-31T12:30:00.219Z,28.48
2022-07-31T12:31:00.229Z,28.27
2022-07-31T12:32:00.182Z,28.25
2022-07-31T12:33:00.208Z,28.19
2022-07-31T12:34:00.173Z,28.15
2022-07-31T12:35:00.162Z,28.25
2022-07-31T12:36:00.156Z,28.25
2022-07-31T12:37:00.155Z,28.37
2022-07-31T12:38:00.183Z,28.17
2022-07-31T12:39:00.136Z,28.19
2022-07-31T12:40:01.417Z,28.29
2022-07-31T12:41:00.132Z,28.35
2022-07-31T12:42:00.117Z,28.75
2022-07-31T12:43:00.134Z,28.76
2022-07-31T12:44:00.105Z,28.91
2022-07-31T12:45:00.092Z,28.94
2022-07-31T12:46:00.101Z,29.24
2022-07-31T12:47:00.093Z,29.42
2022-07-31T12:48:00.102Z,29.60
2022-07-31T12:49:00.100Z,29.66
2022-07-31T12:50:00.080Z,29.93
2022-07-31T12:51:00.052Z,29.72
2022-07-31T12:52:00.044Z,29.41